Terminal Aerodrome Forecast
Issued by NWS Milwaukee/Sullivan, WI

Home | Current Version | Previous Version | Text Only | Print | Product List | Glossary On
Versions: 1 2 3 4 5 6 7 8 9 10 11 12 13 14 15 16 17 18 19 20 21 22 23 24 25 26 27 28 29 30 31 32 33 34 35 36 37 38 39 40 41 42 43 44 45 46 47 48 49 50
000
FTUS43 KMKX 290520
TAFMSN
TAF
KMSN 290520Z 2906/3006 36005KT P6SM OVC035
     FM290800 03007KT P6SM BKN035
     FM291400 05012KT P6SM OVC080
     FM291800 05012G20KT P6SM VCSH OVC050
     FM292100 06014G22KT 6SM -SHRA OVC035
     FM300000 06012G23KT 5SM -SHRA OVC025
     FM300300 06011G24KT P6SM -SHRA OVC015=

USA.gov is the U.S. government's official web portal to all federal, state and local government web resources and services.